createdAt,value
2023-01-06T00:00:00.122Z,1003.77
2023-01-06T00:05:00.128Z,1003.73
2023-01-06T00:10:00.154Z,1003.74
2023-01-06T00:15:00.275Z,1003.7
2023-01-06T00:20:00.097Z,1003.62
2023-01-06T00:25:00.124Z,1003.61
2023-01-06T00:30:00.113Z,1003.61
2023-01-06T00:35:00.218Z,1003.58
2023-01-06T00:40:00.129Z,1003.43
2023-01-06T00:45:00.096Z,1003.46
2023-01-06T00:50:00.134Z,1003.5
2023-01-06T00:55:00.233Z,1003.49
2023-01-06T01:00:00.166Z,1003.45
2023-01-06T01:05:00.112Z,1003.42
2023-01-06T01:10:00.130Z,1003.33
2023-01-06T01:15:00.109Z,1003.4
2023-01-06T01:20:00.135Z,1003.41
2023-01-06T01:25:00.116Z,1003.37
2023-01-06T01:30:00.125Z,1003.24
2023-01-06T01:35:00.254Z,1003.3
2023-01-06T01:40:00.100Z,1003.22
2023-01-06T01:45:00.113Z,1003.21
2023-01-06T01:50:00.116Z,1003.17
2023-01-06T01:55:00.225Z,1003.17
2023-01-06T02:00:00.108Z,1003.1
2023-01-06T02:10:00.098Z,1003.18
2023-01-06T02:15:00.223Z,1003.11
2023-01-06T02:20:00.118Z,1003.07
2023-01-06T02:25:00.111Z,1002.9
2023-01-06T02:30:00.140Z,1002.93
2023-01-06T02:35:00.112Z,1002.72
2023-01-06T02:40:00.130Z,1002.76
2023-01-06T02:45:00.108Z,1002.73
2023-01-06T02:50:00.133Z,1002.65
2023-01-06T02:55:00.228Z,1002.57
2023-01-06T03:00:00.102Z,1002.34
2023-01-06T03:05:00.095Z,1002.31
2023-01-06T03:10:00.110Z,1002.24
2023-01-06T03:15:00.212Z,1002.23
2023-01-06T03:20:00.165Z,1002.22
2023-01-06T03:25:00.087Z,1002.28
2023-01-06T03:30:00.121Z,1002.2
2023-01-06T03:35:00.212Z,1002.25
2023-01-06T03:40:00.105Z,1002.14
2023-01-06T03:45:00.086Z,1002.17
2023-01-06T03:50:00.077Z,1002.1
2023-01-06T03:55:00.236Z,1002.06
2023-01-06T04:00:00.143Z,1001.95
2023-01-06T04:05:00.095Z,1001.91
2023-01-06T04:10:00.121Z,1001.81
2023-01-06T04:15:00.192Z,1001.81
2023-01-06T04:20:00.125Z,1001.78
2023-01-06T04:25:00.117Z,1001.73
2023-01-06T04:30:00.123Z,1001.13
2023-01-06T04:35:00.196Z,1001.09
2023-01-06T04:40:00.113Z,1001.06
2023-01-06T04:45:00.078Z,1000.99
2023-01-06T04:50:00.117Z,1000.84
2023-01-06T04:55:00.210Z,1000.84
2023-01-06T05:00:00.162Z,1000.8
2023-01-06T05:05:00.115Z,1000.75
2023-01-06T05:10:00.142Z,1000.66
2023-01-06T05:15:00.223Z,1000.49
2023-01-06T05:20:00.151Z,1000.49
2023-01-06T05:25:00.136Z,1000.43
2023-01-06T05:30:00.114Z,1000.38
2023-01-06T05:35:00.213Z,1000.53
2023-01-06T05:40:00.131Z,1000.49
2023-01-06T05:45:00.107Z,1000.49
2023-01-06T05:50:00.160Z,1000.46
2023-01-06T05:55:00.159Z,1000.44
2023-01-06T06:00:00.160Z,1000.37
2023-01-06T06:05:00.092Z,1000.42
2023-01-06T06:10:00.120Z,1000.5
2023-01-06T06:15:00.244Z,1000.41
2023-01-06T06:20:00.126Z,1000.42
2023-01-06T06:25:00.124Z,1000.45
2023-01-06T06:30:00.129Z,1000.44
2023-01-06T06:35:00.220Z,1000.52
2023-01-06T06:40:00.115Z,1000.43
2023-01-06T06:45:00.089Z,1000.41
2023-01-06T06:50:00.127Z,1000.27
2023-01-06T06:55:00.225Z,1000.32
2023-01-06T07:00:00.131Z,1000.2
2023-01-06T07:05:00.087Z,1000.23
2023-01-06T07:10:00.127Z,1000.19
2023-01-06T07:15:00.259Z,1000.19
2023-01-06T07:20:00.132Z,1000.12
2023-01-06T07:25:00.103Z,1000.17
2023-01-06T07:30:00.113Z,1000.2
2023-01-06T07:35:00.222Z,1000.01
2023-01-06T07:40:00.154Z,1000.03
2023-01-06T07:45:00.124Z,1000.16
2023-01-06T07:50:00.113Z,1000.02
2023-01-06T07:55:00.228Z,1000.06
2023-01-06T08:00:00.140Z,1000.14
2023-01-06T08:05:00.450Z,1000.17
2023-01-06T08:10:00.156Z,1000.13
2023-01-06T08:15:00.193Z,1000.14
2023-01-06T08:20:00.173Z,1000.13
2023-01-06T08:25:00.125Z,1000.11
2023-01-06T08:30:00.160Z,1000.18
2023-01-06T08:35:00.221Z,1000.04
2023-01-06T08:40:00.172Z,1000.16
2023-01-06T08:45:00.118Z,1000.17
2023-01-06T08:50:00.117Z,1000.27
2023-01-06T08:55:00.225Z,1000.25
2023-01-06T09:00:00.149Z,1000.55
2023-01-06T09:05:00.223Z,1000.42
2023-01-06T09:10:00.150Z,1000.4
2023-01-06T09:15:00.211Z,1000.2
2023-01-06T09:20:00.143Z,1000.3
2023-01-06T09:25:00.110Z,1000.38
2023-01-06T09:30:00.105Z,1000.29
2023-01-06T09:35:00.211Z,1000.27
2023-01-06T09:40:00.111Z,1000.33
2023-01-06T09:45:00.214Z,1000.25
2023-01-06T09:50:00.160Z,1000.32
2023-01-06T09:55:00.253Z,1000.34
2023-01-06T10:00:00.148Z,1000.42
2023-01-06T10:05:00.143Z,1000.32
2023-01-06T10:10:00.108Z,1000.32
2023-01-06T10:15:00.139Z,1000.21
2023-01-06T10:20:00.150Z,1000.22
2023-01-06T10:25:00.125Z,1000.23
2023-01-06T10:30:00.108Z,1000.29
2023-01-06T10:35:00.223Z,1000.26
2023-01-06T10:40:00.106Z,1000.22
2023-01-06T10:45:00.136Z,1000.29
2023-01-06T10:50:00.123Z,1000.24
2023-01-06T10:55:00.254Z,1000.08
2023-01-06T11:00:00.120Z,1000.16
2023-01-06T11:05:00.097Z,1000.08
2023-01-06T11:10:00.103Z,999.92
2023-01-06T11:15:00.241Z,999.8
2023-01-06T11:20:00.117Z,999.82
2023-01-06T11:25:00.108Z,999.75
2023-01-06T11:30:00.120Z,999.7
2023-01-06T11:35:00.218Z,999.66
2023-01-06T11:40:05.356Z,999.54
2023-01-06T11:45:00.124Z,999.38
2023-01-06T11:50:00.143Z,999.34
2023-01-06T11:55:00.249Z,999.3
2023-01-06T12:00:00.138Z,999.23
2023-01-06T12:05:00.106Z,999.32
2023-01-06T12:10:00.134Z,999.16
2023-01-06T12:15:00.959Z,999.27
2023-01-06T12:20:00.128Z,999.31
2023-01-06T12:25:00.156Z,999.33
2023-01-06T12:30:00.132Z,999.24
2023-01-06T12:35:00.194Z,999.33
2023-01-06T12:40:00.103Z,999.37
2023-01-06T12:45:00.119Z,999.24
2023-01-06T12:50:00.119Z,999.22
2023-01-06T12:55:00.225Z,999.16
2023-01-06T13:00:00.146Z,999.13
2023-01-06T13:05:00.098Z,999.19
2023-01-06T13:10:00.122Z,999.24
2023-01-06T13:15:00.244Z,999.31
2023-01-06T13:20:00.093Z,999.37
2023-01-06T13:25:00.132Z,999.24
2023-01-06T13:30:00.173Z,999.34
2023-01-06T13:35:00.208Z,999.4
2023-01-06T13:40:00.128Z,999.49
2023-01-06T13:45:00.112Z,999.52
2023-01-06T13:50:00.156Z,999.5
2023-01-06T13:55:00.280Z,999.51
2023-01-06T14:00:00.124Z,999.46
2023-01-06T14:05:00.100Z,999.38
2023-01-06T14:10:00.161Z,999.49
2023-01-06T14:15:00.259Z,999.56
2023-01-06T14:20:00.134Z,999.52
2023-01-06T14:25:00.112Z,999.55
2023-01-06T14:30:00.141Z,999.56
2023-01-06T14:35:00.280Z,999.6
2023-01-06T14:40:00.131Z,999.65
2023-01-06T14:45:00.109Z,999.77
2023-01-06T14:50:00.129Z,999.94
2023-01-06T14:55:00.114Z,999.76
2023-01-06T15:00:00.127Z,999.84
2023-01-06T15:05:00.135Z,999.99
2023-01-06T15:10:00.130Z,1000.1
2023-01-06T15:15:00.492Z,1000.12
2023-01-06T15:20:00.097Z,1000.21
2023-01-06T15:25:00.121Z,1000.3
2023-01-06T15:30:00.100Z,1000.22
2023-01-06T15:35:00.195Z,1000.4
2023-01-06T15:40:00.127Z,1000.3
2023-01-06T15:45:00.098Z,1000.44
2023-01-06T15:50:00.131Z,1000.41
2023-01-06T15:55:00.299Z,1000.43
2023-01-06T16:00:00.141Z,1000.61
2023-01-06T16:05:00.185Z,1000.64
2023-01-06T16:10:00.138Z,1000.59
2023-01-06T16:15:00.270Z,1000.67
2023-01-06T16:20:00.302Z,1000.69
2023-01-06T16:25:00.121Z,1000.79
2023-01-06T16:30:00.120Z,1000.67
2023-01-06T16:35:00.224Z,1000.91
2023-01-06T16:40:00.111Z,1000.95
2023-01-06T16:45:00.113Z,1000.91
2023-01-06T16:50:00.184Z,1000.93
2023-01-06T16:55:00.197Z,1001.12
2023-01-06T17:00:00.184Z,1001.14
2023-01-06T17:05:00.157Z,1001.16
2023-01-06T17:10:00.204Z,1001.13
2023-01-06T17:15:00.125Z,1001.18
2023-01-06T17:20:00.151Z,1001.23
2023-01-06T17:25:00.084Z,1001.17
2023-01-06T17:30:00.122Z,1001.31
2023-01-06T17:35:00.195Z,1001.33
2023-01-06T17:40:00.089Z,1001.34
2023-01-06T17:45:00.088Z,1001.45
2023-01-06T17:50:00.131Z,1001.43
2023-01-06T17:55:00.199Z,1001.42
2023-01-06T18:00:00.185Z,1001.33
2023-01-06T18:05:00.066Z,1001.32
2023-01-06T18:10:00.114Z,1001.29
2023-01-06T18:15:00.231Z,1001.32
2023-01-06T18:20:00.120Z,1001.34
2023-01-06T18:25:00.125Z,1001.47
2023-01-06T18:30:00.146Z,1001.52
2023-01-06T18:35:00.207Z,1001.55
2023-01-06T18:40:00.131Z,1001.52
2023-01-06T18:45:00.107Z,1001.65
2023-01-06T18:50:00.154Z,1001.64
2023-01-06T18:55:00.275Z,1001.66
2023-01-06T19:00:00.095Z,1001.66
2023-01-06T19:05:00.121Z,1001.58
2023-01-06T19:10:00.134Z,1001.7
2023-01-06T19:15:00.223Z,1001.69
2023-01-06T19:20:00.138Z,1001.73
2023-01-06T19:25:00.123Z,1001.7
2023-01-06T19:30:00.103Z,1001.83
2023-01-06T19:35:00.232Z,1001.81
2023-01-06T19:40:00.096Z,1001.7
2023-01-06T19:45:00.125Z,1001.63
2023-01-06T19:50:00.295Z,1001.75
2023-01-06T19:55:00.239Z,1001.73
2023-01-06T20:00:00.178Z,1001.72
2023-01-06T20:05:00.124Z,1001.75
2023-01-06T20:10:00.148Z,1001.74
2023-01-06T20:15:00.207Z,1001.83
2023-01-06T20:20:00.082Z,1001.83
2023-01-06T20:25:00.116Z,1001.95
2023-01-06T20:30:00.129Z,1001.96
2023-01-06T20:35:00.200Z,1001.96
2023-01-06T20:40:00.114Z,1002.04
2023-01-06T20:45:00.129Z,1002.17
2023-01-06T20:50:00.098Z,1002.11
2023-01-06T20:55:00.245Z,1002.12
2023-01-06T21:00:00.137Z,1002.17
2023-01-06T21:05:00.130Z,1002.18
2023-01-06T21:10:00.110Z,1002.16
2023-01-06T21:15:00.232Z,1002.11
2023-01-06T21:20:00.117Z,1002.18
2023-01-06T21:25:00.103Z,1002.13
2023-01-06T21:30:00.104Z,1002.64
2023-01-06T21:35:00.205Z,1002.61
2023-01-06T21:40:00.148Z,1002.65
2023-01-06T21:45:00.102Z,1002.76
2023-01-06T21:50:00.116Z,1002.74
2023-01-06T21:55:00.211Z,1002.66
2023-01-06T22:00:00.130Z,1002.67
2023-01-06T22:05:00.106Z,1002.66
2023-01-06T22:10:00.143Z,1002.7
2023-01-06T22:15:00.257Z,1002.76
2023-01-06T22:20:00.121Z,1002.58
2023-01-06T22:25:00.099Z,1002.67
2023-01-06T22:30:00.134Z,1002.68
2023-01-06T22:35:00.235Z,1002.66
2023-01-06T22:40:00.105Z,1002.81
2023-01-06T22:45:00.113Z,1002.71
2023-01-06T22:50:00.104Z,1002.65
2023-01-06T22:55:00.197Z,1002.65
2023-01-06T23:00:00.233Z,1002.68
2023-01-06T23:05:00.092Z,1002.71
2023-01-06T23:10:00.126Z,1002.67
2023-01-06T23:15:00.208Z,1002.68
2023-01-06T23:20:00.126Z,1002.62
2023-01-06T23:25:00.119Z,1002.59
2023-01-06T23:30:00.113Z,1002.64
2023-01-06T23:35:00.247Z,1002.48
2023-01-06T23:40:00.157Z,1002.5
2023-01-06T23:45:00.135Z,1002.46
2023-01-06T23:50:00.109Z,1002.45
2023-01-06T23:55:00.207Z,1002.48
